createdAt,value
2023-10-12T00:02:28.635Z,100071.09
2023-10-12T00:05:02.541Z,100068.56
2023-10-12T00:07:36.355Z,100048.31
2023-10-12T00:10:17.353Z,100057.38
2023-10-12T00:12:49.050Z,100043.31
2023-10-12T00:15:21.730Z,100037.00
2023-10-12T00:17:52.023Z,100056.66
2023-10-12T00:20:33.561Z,100047.88
2023-10-12T00:23:10.980Z,100048.75
2023-10-12T00:25:50.663Z,100049.63
2023-10-12T00:28:22.826Z,100048.47
2023-10-12T00:30:54.048Z,100054.91
2023-10-12T00:33:22.076Z,100050.56
2023-10-12T00:35:58.653Z,100052.47
2023-10-12T00:38:30.038Z,100054.69
2023-10-12T00:40:58.989Z,100049.63
2023-10-12T00:43:33.198Z,100057.47
2023-10-12T00:46:17.667Z,100053.00
2023-10-12T00:48:50.983Z,100045.66
2023-10-12T00:51:18.446Z,100047.78
2023-10-12T00:53:56.958Z,100038.81
2023-10-12T00:56:25.868Z,100043.63
2023-10-12T00:58:56.116Z,100033.31
2023-10-12T01:01:24.591Z,100047.19
2023-10-12T01:03:51.460Z,100043.94
2023-10-12T01:06:27.134Z,100039.47
2023-10-12T01:08:53.806Z,100054.28
2023-10-12T01:11:36.681Z,100039.06
2023-10-12T01:14:04.106Z,100041.84
2023-10-12T01:16:46.265Z,100054.25
2023-10-12T01:19:21.953Z,100054.88
2023-10-12T01:22:14.375Z,100053.47
2023-10-12T01:24:46.726Z,100052.19
2023-10-12T01:27:13.646Z,100043.69
2023-10-12T01:29:40.169Z,100048.94
2023-10-12T01:32:22.741Z,100049.19
2023-10-12T01:34:57.122Z,100053.88
2023-10-12T01:37:28.087Z,100047.75
2023-10-12T01:39:59.691Z,100040.09
2023-10-12T01:42:43.584Z,100049.22
2023-10-12T01:45:29.158Z,100055.34
2023-10-12T01:47:56.581Z,100049.00
2023-10-12T01:50:27.503Z,100054.44
2023-10-12T01:52:54.600Z,100055.28
2023-10-12T01:55:30.323Z,100045.22
2023-10-12T01:57:57.823Z,100039.16
2023-10-12T02:00:29.075Z,100036.69
2023-10-12T02:03:16.287Z,100041.03
2023-10-12T02:05:59.742Z,100036.28
2023-10-12T02:08:34.312Z,100031.13
2023-10-12T02:11:07.444Z,100023.91
2023-10-12T02:13:37.342Z,100008.31
2023-10-12T02:16:05.408Z,100007.28
2023-10-12T02:18:33.718Z,100010.69
2023-10-12T02:21:08.198Z,100025.94
2023-10-12T02:23:54.217Z,100026.72
2023-10-12T02:26:34.381Z,100026.16
2023-10-12T02:29:11.056Z,100039.25
2023-10-12T02:32:06.949Z,100039.13
2023-10-12T02:34:33.502Z,100051.06
2023-10-12T02:37:03.887Z,100058.38
2023-10-12T02:39:31.860Z,100061.59
2023-10-12T02:42:10.538Z,100057.72
2023-10-12T02:44:49.117Z,100060.66
2023-10-12T02:47:19.392Z,100064.41
2023-10-12T02:49:48.018Z,100081.34
2023-10-12T02:52:16.118Z,100071.19
2023-10-12T02:54:53.167Z,100071.50
2023-10-12T02:57:24.226Z,100076.53
2023-10-12T03:00:13.628Z,100074.28
2023-10-12T03:02:42.363Z,100074.09
2023-10-12T03:05:09.726Z,100059.13
2023-10-12T03:07:39.580Z,100048.28
2023-10-12T03:10:16.042Z,100044.47
2023-10-12T03:12:45.049Z,100045.06
2023-10-12T03:15:15.346Z,100029.63
2023-10-12T03:17:55.570Z,100051.84
2023-10-12T03:20:23.827Z,100053.59
2023-10-12T03:22:54.403Z,100061.88
2023-10-12T03:25:21.789Z,100054.53
2023-10-12T03:27:54.750Z,100064.16
2023-10-12T03:30:35.404Z,100065.25
2023-10-12T03:33:10.650Z,100061.47
2023-10-12T03:35:46.065Z,100067.63
2023-10-12T03:38:20.024Z,100092.16
2023-10-12T03:40:51.461Z,100078.34
2023-10-12T03:43:44.106Z,100080.50
2023-10-12T03:46:28.132Z,100078.22
2023-10-12T03:49:17.967Z,100083.31
2023-10-12T03:51:47.514Z,100110.03
2023-10-12T03:54:27.180Z,100116.81
2023-10-12T03:56:58.372Z,100112.06
2023-10-12T03:59:38.218Z,100109.63
2023-10-12T04:02:04.837Z,100109.72
2023-10-12T04:04:44.511Z,100106.84
2023-10-12T04:07:18.158Z,100100.94
2023-10-12T04:09:52.746Z,100103.09
2023-10-12T04:12:20.738Z,100088.72
2023-10-12T04:14:56.392Z,100105.06
2023-10-12T04:17:28.843Z,100117.63
2023-10-12T04:20:07.865Z,100118.25
2023-10-12T04:22:52.951Z,100131.66
2023-10-12T04:25:32.873Z,100127.34
2023-10-12T04:28:18.875Z,100119.41
2023-10-12T04:30:52.056Z,100123.53
2023-10-12T04:33:19.234Z,100135.66
2023-10-12T04:35:49.213Z,100135.22
2023-10-12T04:38:25.350Z,100143.78
2023-10-12T04:41:14.029Z,100135.22
2023-10-12T04:43:40.715Z,100145.69
2023-10-12T04:46:13.556Z,100140.91
2023-10-12T04:48:45.103Z,100151.97
2023-10-12T04:51:22.634Z,100154.44
2023-10-12T04:53:58.282Z,100145.97
2023-10-12T04:56:27.475Z,100154.66
2023-10-12T04:58:58.068Z,100155.59
2023-10-12T05:01:42.377Z,100161.28
2023-10-12T05:04:27.785Z,100156.09
2023-10-12T05:07:13.005Z,100154.69
2023-10-12T05:09:39.675Z,100129.94
2023-10-12T05:12:06.408Z,100133.00
2023-10-12T05:14:34.263Z,100112.91
2023-10-12T05:17:00.959Z,100126.78
2023-10-12T05:19:28.043Z,100121.19
2023-10-12T05:21:55.405Z,100108.50
2023-10-12T05:24:24.911Z,100092.81
2023-10-12T05:27:10.140Z,100104.38
2023-10-12T05:29:39.800Z,100118.63
2023-10-12T05:32:07.172Z,100125.34
2023-10-12T05:34:46.345Z,100131.03
2023-10-12T05:37:17.056Z,100111.91
2023-10-12T05:39:56.726Z,100120.41
2023-10-12T05:42:23.767Z,100146.97
2023-10-12T05:44:52.026Z,100125.44
2023-10-12T05:47:19.458Z,100102.44
2023-10-12T05:49:51.604Z,100105.13
2023-10-12T05:52:18.418Z,100172.59
2023-10-12T05:54:45.201Z,100146.50
2023-10-12T05:57:20.939Z,100202.97
2023-10-12T05:59:48.208Z,100201.00
2023-10-12T06:02:18.626Z,100221.91
2023-10-12T06:04:46.295Z,100215.69
2023-10-12T06:07:13.378Z,100213.28
2023-10-12T06:09:41.829Z,100215.03
2023-10-12T06:12:09.312Z,100233.38
2023-10-12T06:14:39.891Z,100241.22
2023-10-12T06:17:07.198Z,100242.97
2023-10-12T06:19:38.125Z,100226.28
2023-10-12T06:22:34.133Z,100222.59
2023-10-12T06:25:09.310Z,100223.41
2023-10-12T06:27:38.300Z,100246.09
2023-10-12T06:30:17.453Z,100270.66
2023-10-12T06:32:48.077Z,100295.09
2023-10-12T06:35:25.206Z,100300.84
2023-10-12T06:37:54.741Z,100279.91
2023-10-12T06:40:25.964Z,100260.09
2023-10-12T06:43:20.308Z,100261.09
2023-10-12T06:45:52.972Z,100278.25
2023-10-12T06:48:28.964Z,100274.56
2023-10-12T06:51:12.475Z,100279.41
2023-10-12T06:53:42.017Z,100300.72
2023-10-12T06:56:16.320Z,100301.66
2023-10-12T06:59:08.626Z,100295.59
2023-10-12T07:01:47.891Z,100311.91
2023-10-12T07:04:18.364Z,100308.56
2023-10-12T07:06:58.700Z,100311.91
2023-10-12T07:09:41.203Z,100290.44
2023-10-12T07:12:11.337Z,100275.59
2023-10-12T07:14:40.614Z,100287.19
2023-10-12T07:17:10.695Z,100297.44
2023-10-12T07:19:42.117Z,100305.91
2023-10-12T07:22:14.871Z,100294.31
2023-10-12T07:24:42.040Z,100279.44
2023-10-12T07:27:23.084Z,100283.00
2023-10-12T07:30:03.290Z,100276.28
2023-10-12T07:32:33.192Z,100305.19
2023-10-12T07:35:10.264Z,100322.69
2023-10-12T07:37:42.363Z,100312.44
2023-10-12T07:40:19.358Z,100307.19
2023-10-12T07:42:49.897Z,100292.34
2023-10-12T07:45:19.383Z,100279.59
2023-10-12T07:48:07.113Z,100290.25
2023-10-12T07:50:38.805Z,100294.03
2023-10-12T07:53:22.851Z,100293.94
2023-10-12T07:56:01.853Z,100287.22
2023-10-12T07:58:31.409Z,100264.00
2023-10-12T08:01:21.006Z,100254.28
2023-10-12T08:03:52.061Z,100268.63
2023-10-12T08:06:37.449Z,100282.00
2023-10-12T08:09:23.524Z,100253.78
2023-10-12T08:11:50.139Z,100289.84
2023-10-12T08:14:25.849Z,100282.72
2023-10-12T08:17:11.959Z,100274.59
2023-10-12T08:19:44.552Z,100283.38
2023-10-12T08:22:26.680Z,100272.78
2023-10-12T08:24:57.548Z,100300.81
2023-10-12T08:27:25.154Z,100312.88
2023-10-12T08:29:51.744Z,100313.19
2023-10-12T08:32:36.392Z,100318.09
2023-10-12T08:35:03.102Z,100303.16
2023-10-12T08:37:37.687Z,100316.84
2023-10-12T08:40:20.378Z,100328.13
2023-10-12T08:43:07.535Z,100344.88
2023-10-12T08:45:36.867Z,100341.84
2023-10-12T08:48:05.090Z,100352.06
2023-10-12T08:51:00.041Z,100360.94
2023-10-12T08:53:28.264Z,100355.50
2023-10-12T08:55:55.711Z,100352.34
2023-10-12T08:58:39.959Z,100347.22
2023-10-12T09:01:09.330Z,100336.88
2023-10-12T09:03:40.325Z,100340.34
2023-10-12T09:06:27.738Z,100332.19
2023-10-12T09:08:57.288Z,100348.59
2023-10-12T09:11:36.009Z,100347.66
2023-10-12T09:14:15.141Z,100357.38
2023-10-12T09:16:44.446Z,100343.88
2023-10-12T09:19:27.440Z,100337.94
2023-10-12T09:22:02.235Z,100327.28
2023-10-12T09:24:36.264Z,100325.69
2023-10-12T09:27:12.915Z,100330.00
2023-10-12T09:29:50.472Z,100323.09
2023-10-12T09:32:20.654Z,100335.38
2023-10-12T09:34:57.362Z,100349.94
2023-10-12T09:37:29.946Z,100357.59
2023-10-12T09:39:56.834Z,100365.34
2023-10-12T09:42:31.450Z,100364.41
2023-10-12T09:45:03.031Z,100366.41
2023-10-12T09:47:44.595Z,100373.75
2023-10-12T09:50:15.836Z,100346.63
2023-10-12T09:52:58.770Z,100361.50
2023-10-12T09:55:34.193Z,100351.03
2023-10-12T09:58:15.879Z,100335.56
2023-10-12T10:01:00.379Z,100339.41
2023-10-12T10:03:36.724Z,100331.16
2023-10-12T10:06:21.245Z,100319.66
2023-10-12T10:09:10.972Z,100323.63
2023-10-12T10:11:40.588Z,100320.50
2023-10-12T10:14:11.122Z,100317.78
2023-10-12T10:16:49.833Z,100321.13
2023-10-12T10:19:18.142Z,100327.28
2023-10-12T10:21:51.979Z,100324.44
2023-10-12T10:24:25.976Z,100337.63
2023-10-12T10:26:58.504Z,100347.56
2023-10-12T10:29:54.943Z,100341.28
2023-10-12T10:32:38.152Z,100338.78
2023-10-12T10:35:19.299Z,100340.25
2023-10-12T10:38:00.238Z,100352.16
2023-10-12T10:40:46.900Z,100347.75
2023-10-12T10:43:16.805Z,100350.09
2023-10-12T10:45:57.538Z,100359.28
2023-10-12T10:48:57.544Z,100356.47
2023-10-12T10:51:25.924Z,100356.25
2023-10-12T10:53:59.093Z,100355.94
2023-10-12T10:56:38.611Z,100353.41
2023-10-12T10:59:08.781Z,100359.66
2023-10-12T11:01:35.617Z,100353.78
2023-10-12T11:04:02.616Z,100345.84
2023-10-12T11:06:29.919Z,100345.53
2023-10-12T11:09:08.873Z,100343.59
2023-10-12T11:11:39.220Z,100346.09
2023-10-12T11:14:07.206Z,100341.50
2023-10-12T11:16:34.702Z,100345.28
2023-10-12T11:19:02.671Z,100346.63
2023-10-12T11:21:29.542Z,100341.06
2023-10-12T11:24:10.332Z,100343.69
2023-10-12T11:26:58.471Z,100353.22
2023-10-12T11:29:26.683Z,100349.44
2023-10-12T11:32:11.358Z,100341.81
2023-10-12T11:34:45.845Z,100343.78
2023-10-12T11:37:14.387Z,100325.69
2023-10-12T11:39:48.428Z,100328.72
2023-10-12T11:42:15.546Z,100315.06
2023-10-12T11:44:44.231Z,100312.25
2023-10-12T11:47:16.045Z,100317.09
2023-10-12T11:49:49.681Z,100307.56
2023-10-12T11:52:31.016Z,100293.31
2023-10-12T11:55:21.779Z,100307.28
2023-10-12T11:57:55.763Z,100288.97
2023-10-12T12:00:26.369Z,100286.38
2023-10-12T12:02:58.523Z,100284.16
2023-10-12T12:05:26.907Z,100272.00
2023-10-12T12:07:55.068Z,100261.63
2023-10-12T12:10:45.799Z,100258.78
2023-10-12T12:13:14.039Z,100271.25
2023-10-12T12:15:46.630Z,100266.13
2023-10-12T12:18:22.008Z,100261.59
2023-10-12T12:20:51.337Z,100267.91
2023-10-12T12:23:19.385Z,100248.25
2023-10-12T12:25:46.648Z,100254.69
2023-10-12T12:28:17.805Z,100252.59
2023-10-12T12:30:57.520Z,100246.19
2023-10-12T12:33:25.581Z,100250.72
2023-10-12T12:36:01.248Z,100251.69
2023-10-12T12:38:31.773Z,100235.59
2023-10-12T12:40:58.699Z,100240.41
2023-10-12T12:43:25.351Z,100249.50
2023-10-12T12:45:53.845Z,100239.59
2023-10-12T12:48:21.108Z,100237.59
2023-10-12T12:50:49.220Z,100239.28
2023-10-12T12:53:19.841Z,100239.41
2023-10-12T12:55:47.453Z,100235.19
2023-10-12T12:58:18.472Z,100237.72
2023-10-12T13:00:49.090Z,100228.28
2023-10-12T13:03:17.258Z,100234.34
2023-10-12T13:05:44.235Z,100223.09
2023-10-12T13:08:12.554Z,100221.44
2023-10-12T13:10:40.137Z,100213.41
2023-10-12T13:13:07.777Z,100214.13
2023-10-12T13:15:42.392Z,100220.00
2023-10-12T13:18:16.059Z,100209.16
2023-10-12T13:20:47.603Z,100214.94
2023-10-12T13:23:15.392Z,100216.50
2023-10-12T13:25:42.198Z,100223.78
2023-10-12T13:28:11.222Z,100201.25
2023-10-12T13:30:38.305Z,100205.19
2023-10-12T13:33:06.987Z,100193.50
2023-10-12T13:35:42.564Z,100198.28
2023-10-12T13:38:12.917Z,100212.81
2023-10-12T13:40:40.901Z,100214.34
2023-10-12T13:43:16.388Z,100194.91
2023-10-12T13:45:49.980Z,100185.38
2023-10-12T13:48:26.777Z,100197.53
2023-10-12T13:51:02.144Z,100215.22
2023-10-12T13:53:29.385Z,100221.81
2023-10-12T13:55:57.508Z,100215.88
2023-10-12T13:58:27.440Z,100210.28
2023-10-12T14:00:55.467Z,100213.53
2023-10-12T14:03:35.970Z,100231.06
2023-10-12T14:06:03.733Z,100213.56
2023-10-12T14:08:33.377Z,100199.78
2023-10-12T14:11:04.875Z,100200.50
2023-10-12T14:13:32.633Z,100212.97
2023-10-12T14:16:01.137Z,100216.00
2023-10-12T14:18:32.070Z,100231.72
2023-10-12T14:20:59.000Z,100237.88
2023-10-12T14:23:30.722Z,100224.28
2023-10-12T14:26:01.385Z,100246.03
2023-10-12T14:28:37.299Z,100231.59
2023-10-12T14:31:07.256Z,100231.72
2023-10-12T14:33:36.199Z,100233.59
2023-10-12T14:36:06.207Z,100229.63
2023-10-12T14:38:35.731Z,100235.56
2023-10-12T14:41:06.532Z,100225.94
2023-10-12T14:43:34.314Z,100220.81
2023-10-12T14:46:04.206Z,100221.75
2023-10-12T14:48:31.995Z,100216.53
2023-10-12T14:51:10.451Z,100207.13
2023-10-12T14:53:37.236Z,100218.84
2023-10-12T14:56:06.952Z,100215.94
2023-10-12T14:58:34.254Z,100212.78
2023-10-12T15:01:01.116Z,100219.91
2023-10-12T15:03:28.198Z,100206.22
2023-10-12T15:05:56.513Z,100216.16
2023-10-12T15:08:27.777Z,100220.66
2023-10-12T15:10:58.338Z,100230.38
2023-10-12T15:13:27.147Z,100221.38
2023-10-12T15:15:54.725Z,100226.19
2023-10-12T15:18:26.104Z,100239.16
2023-10-12T15:21:05.567Z,100241.97
2023-10-12T15:23:39.586Z,100238.63
2023-10-12T15:26:07.427Z,100225.25
2023-10-12T15:28:37.526Z,100220.88
2023-10-12T15:31:05.262Z,100225.66
2023-10-12T15:33:32.132Z,100219.59
2023-10-12T15:35:58.684Z,100224.09
2023-10-12T15:38:32.496Z,100213.97
2023-10-12T15:41:00.789Z,100210.31
2023-10-12T15:43:27.871Z,100214.06
2023-10-12T15:45:57.099Z,100219.19
2023-10-12T15:48:27.832Z,100212.56
2023-10-12T15:50:55.736Z,100227.31
2023-10-12T15:53:24.148Z,100225.09
2023-10-12T15:55:51.419Z,100217.47
2023-10-12T15:58:18.312Z,100205.53
2023-10-12T16:00:46.201Z,100212.75
2023-10-12T16:03:15.367Z,100209.19
2023-10-12T16:05:43.891Z,100208.38
2023-10-12T16:08:15.665Z,100212.53
2023-10-12T16:10:50.342Z,100217.16
2023-10-12T16:13:17.838Z,100215.91
2023-10-12T16:15:44.757Z,100219.97
2023-10-12T16:18:13.066Z,100212.97
2023-10-12T16:20:40.161Z,100216.84
2023-10-12T16:23:06.901Z,100215.69
2023-10-12T16:25:33.692Z,100214.84
2023-10-12T16:28:00.392Z,100215.88
2023-10-12T16:30:31.132Z,100220.28
2023-10-12T16:32:57.835Z,100214.44
2023-10-12T16:35:25.060Z,100213.28
2023-10-12T16:37:52.843Z,100209.94
2023-10-12T16:40:20.181Z,100212.75
2023-10-12T16:42:47.782Z,100204.91
2023-10-12T16:45:15.654Z,100199.91
2023-10-12T16:47:43.078Z,100202.50
2023-10-12T16:50:13.538Z,100205.66
2023-10-12T16:52:40.736Z,100202.72
2023-10-12T16:55:11.270Z,100198.75
2023-10-12T16:57:38.556Z,100202.50
2023-10-12T17:00:09.254Z,100196.25
2023-10-12T17:02:36.852Z,100209.56
2023-10-12T17:05:04.355Z,100214.69
2023-10-12T17:07:31.622Z,100213.22
2023-10-12T17:10:01.824Z,100209.88
2023-10-12T17:12:31.070Z,100214.56
2023-10-12T17:15:00.061Z,100216.25
2023-10-12T17:17:26.685Z,100225.00
2023-10-12T17:19:53.352Z,100221.75
2023-10-12T17:22:31.883Z,100217.38
2023-10-12T17:24:58.657Z,100225.22
2023-10-12T17:27:25.353Z,100213.31
2023-10-12T17:29:51.937Z,100231.69
2023-10-12T17:32:18.641Z,100228.31
2023-10-12T17:34:45.293Z,100218.94
2023-10-12T17:37:11.916Z,100226.97
2023-10-12T17:39:39.706Z,100225.78
2023-10-12T17:42:06.386Z,100231.13
2023-10-12T17:44:34.256Z,100228.72
2023-10-12T17:47:00.835Z,100217.53
2023-10-12T17:49:27.629Z,100227.63
2023-10-12T17:51:54.456Z,100248.78
2023-10-12T17:54:22.002Z,100255.19
2023-10-12T17:56:50.213Z,100262.03
2023-10-12T17:59:17.476Z,100281.41
2023-10-12T18:02:15.834Z,100273.41
2023-10-12T18:04:47.076Z,100272.66
2023-10-12T18:07:14.194Z,100274.53
2023-10-12T18:09:43.879Z,100273.50
2023-10-12T18:12:11.871Z,100264.69
2023-10-12T18:14:39.560Z,100270.09
2023-10-12T18:17:15.226Z,100263.41
2023-10-12T18:19:41.876Z,100255.94
2023-10-12T18:22:08.581Z,100276.91
2023-10-12T18:24:35.164Z,100267.31
2023-10-12T18:27:01.981Z,100272.25
2023-10-12T18:29:28.900Z,100267.69
2023-10-12T18:31:55.617Z,100265.53
2023-10-12T18:34:22.517Z,100265.72
2023-10-12T18:36:58.180Z,100253.25
2023-10-12T18:42:33.476Z,100261.00
2023-10-12T18:45:00.418Z,100271.78
2023-10-12T18:47:28.893Z,100261.88
2023-10-12T18:50:09.793Z,100264.69
2023-10-12T18:52:38.677Z,100267.59
2023-10-12T18:55:07.606Z,100271.03
2023-10-12T18:57:34.368Z,100272.91
2023-10-12T19:00:00.933Z,100264.34
2023-10-12T19:02:27.543Z,100249.53
2023-10-12T19:04:54.183Z,100254.09
2023-10-12T19:07:23.795Z,100255.94
2023-10-12T19:09:50.458Z,100268.34
2023-10-12T19:12:19.874Z,100271.78
2023-10-12T19:14:46.445Z,100259.22
2023-10-12T19:17:13.060Z,100264.16
2023-10-12T19:19:39.868Z,100259.31
2023-10-12T19:22:06.492Z,100268.13
2023-10-12T19:24:34.058Z,100281.03
2023-10-12T19:27:00.696Z,100276.91
2023-10-12T19:29:27.325Z,100281.66
2023-10-12T19:31:56.174Z,100284.53
2023-10-12T19:34:23.231Z,100287.97
2023-10-12T19:36:52.524Z,100280.63
2023-10-12T19:39:19.362Z,100263.59
2023-10-12T19:41:47.557Z,100269.38
2023-10-12T19:44:14.227Z,100265.72
2023-10-12T19:46:40.975Z,100263.22
2023-10-12T19:49:09.059Z,100276.16
2023-10-12T19:51:35.687Z,100263.22
2023-10-12T19:54:02.384Z,100271.97
2023-10-12T19:56:28.938Z,100283.34
2023-10-12T19:58:59.459Z,100275.88
2023-10-12T20:01:26.258Z,100276.59
2023-10-12T20:03:53.608Z,100267.22
2023-10-12T20:06:21.412Z,100263.03
2023-10-12T20:08:49.299Z,100283.34
2023-10-12T20:11:17.666Z,100275.91
2023-10-12T20:13:51.464Z,100280.34
2023-10-12T20:16:22.053Z,100284.72
2023-10-12T20:18:49.476Z,100282.84
2023-10-12T20:21:17.958Z,100266.38
2023-10-12T20:23:45.870Z,100269.63
2023-10-12T20:26:14.360Z,100261.69
2023-10-12T20:28:41.791Z,100264.09
2023-10-12T20:31:11.372Z,100260.16
2023-10-12T20:33:40.173Z,100261.94
2023-10-12T20:36:08.598Z,100254.59
2023-10-12T20:38:35.410Z,100255.16
2023-10-12T20:41:02.513Z,100253.97
2023-10-12T20:43:29.321Z,100242.34
2023-10-12T20:46:01.594Z,100249.81
2023-10-12T20:48:28.791Z,100266.13
2023-10-12T20:50:58.809Z,100270.09
2023-10-12T20:53:25.656Z,100266.00
2023-10-12T20:55:53.477Z,100280.78
2023-10-12T20:58:24.017Z,100275.22
2023-10-12T21:01:01.567Z,100280.59
2023-10-12T21:03:38.346Z,100281.03
2023-10-12T21:06:16.662Z,100271.91
2023-10-12T21:08:45.178Z,100274.63
2023-10-12T21:11:20.336Z,100273.69
2023-10-12T21:13:50.874Z,100275.47
2023-10-12T21:16:17.552Z,100270.69
2023-10-12T21:18:51.343Z,100267.44
2023-10-12T21:21:25.003Z,100275.56
2023-10-12T21:23:52.062Z,100269.66
2023-10-12T21:26:23.709Z,100261.09
2023-10-12T21:28:55.335Z,100260.66
2023-10-12T21:31:28.463Z,100261.69
2023-10-12T21:34:01.354Z,100247.28
2023-10-12T21:36:32.282Z,100252.63
2023-10-12T21:39:00.151Z,100246.03
2023-10-12T21:41:33.853Z,100249.94
2023-10-12T21:44:05.887Z,100257.56
2023-10-12T21:46:40.469Z,100242.19
2023-10-12T21:49:08.220Z,100241.56
2023-10-12T21:51:36.515Z,100246.03
2023-10-12T21:54:07.415Z,100262.44
2023-10-12T21:56:37.327Z,100262.81
2023-10-12T21:59:09.689Z,100263.94
2023-10-12T22:01:37.202Z,100265.91
2023-10-12T22:04:05.315Z,100262.81
2023-10-12T22:06:34.130Z,100256.88
2023-10-12T22:09:01.193Z,100263.66
2023-10-12T22:11:34.713Z,100253.91
2023-10-12T22:14:13.972Z,100249.94
2023-10-12T22:16:41.881Z,100251.59
2023-10-12T22:19:11.536Z,100243.69
2023-10-12T22:21:39.372Z,100246.84
2023-10-12T22:24:06.791Z,100241.78
2023-10-12T22:26:38.107Z,100252.72
2023-10-12T22:29:05.256Z,100252.53
2023-10-12T22:31:35.029Z,100255.03
2023-10-12T22:34:07.763Z,100262.22
2023-10-12T22:36:37.908Z,100255.13
2023-10-12T22:39:16.751Z,100263.06
2023-10-12T22:41:50.252Z,100255.56
2023-10-12T22:44:17.831Z,100253.00
2023-10-12T22:46:47.759Z,100244.72
2023-10-12T22:49:15.530Z,100249.31
2023-10-12T22:51:42.115Z,100253.41
2023-10-12T22:54:08.698Z,100248.31
2023-10-12T22:56:35.686Z,100251.53
2023-10-12T22:59:02.749Z,100250.97
2023-10-12T23:01:29.945Z,100245.19
2023-10-12T23:03:56.798Z,100252.81
2023-10-12T23:06:23.548Z,100248.25
2023-10-12T23:08:50.575Z,100243.31
2023-10-12T23:11:21.788Z,100241.25
2023-10-12T23:13:49.728Z,100243.56
2023-10-12T23:16:27.873Z,100245.25
2023-10-12T23:18:57.535Z,100243.88
2023-10-12T23:21:30.946Z,100238.56
2023-10-12T23:24:12.709Z,100245.47
2023-10-12T23:26:39.856Z,100240.97
2023-10-12T23:29:06.931Z,100244.31
2023-10-12T23:31:36.782Z,100253.28
2023-10-12T23:34:12.005Z,100258.72
2023-10-12T23:36:39.264Z,100260.50
2023-10-12T23:39:15.536Z,100248.06
2023-10-12T23:41:52.045Z,100255.56
2023-10-12T23:44:24.619Z,100246.38
2023-10-12T23:46:54.779Z,100249.09
2023-10-12T23:49:22.052Z,100253.41
2023-10-12T23:51:49.051Z,100252.25
2023-10-12T23:54:27.652Z,100255.16
2023-10-12T23:57:03.764Z,100254.00
2023-10-12T23:59:33.739Z,100252.13
